sensor_id;sensor_type;location;lat;lon;timestamp;pressure;altitude;pressure_sealevel;temperature;humidity
56074;BME280;41950;55.840;37.442;2022-08-03T00:01:32;99728.19;;;20.60;57.23
56074;BME280;41950;55.840;37.442;2022-08-03T00:03:58;99718.88;;;20.55;57.27
56074;BME280;41950;55.840;37.442;2022-08-03T00:06:24;99738.66;;;20.62;57.44
56074;BME280;41950;55.840;37.442;2022-08-03T00:08:50;99721.91;;;20.47;58.06
56074;BME280;41950;55.840;37.442;2022-08-03T00:11:15;99717.22;;;20.36;58.07
56074;BME280;41950;55.840;37.442;2022-08-03T00:13:41;99722.59;;;20.35;58.58
56074;BME280;41950;55.840;37.442;2022-08-03T00:16:07;99733.13;;;20.35;58.70
56074;BME280;41950;55.840;37.442;2022-08-03T00:18:33;99726.16;;;20.34;58.93
56074;BME280;41950;55.840;37.442;2022-08-03T00:20:58;99734.84;;;20.36;58.51
56074;BME280;41950;55.840;37.442;2022-08-03T00:23:24;99734.75;;;20.37;58.83
56074;BME280;41950;55.840;37.442;2022-08-03T00:25:49;99725.13;;;20.36;58.46
56074;BME280;41950;55.840;37.442;2022-08-03T00:28:15;99733.75;;;20.40;58.23
56074;BME280;41950;55.840;37.442;2022-08-03T00:30:41;99734.50;;;20.42;58.51
56074;BME280;41950;55.840;37.442;2022-08-03T00:33:06;99745.28;;;20.37;58.17
56074;BME280;41950;55.840;37.442;2022-08-03T00:35:34;99749.88;;;20.34;58.70
56074;BME280;41950;55.840;37.442;2022-08-03T00:38:00;99748.38;;;20.30;58.63
56074;BME280;41950;55.840;37.442;2022-08-03T00:40:26;99751.00;;;20.30;59.14
56074;BME280;41950;55.840;37.442;2022-08-03T00:42:58;99738.91;;;20.26;58.94
56074;BME280;41950;55.840;37.442;2022-08-03T00:45:29;99738.06;;;20.25;58.93
56074;BME280;41950;55.840;37.442;2022-08-03T00:47:55;99725.41;;;20.16;58.98
56074;BME280;41950;55.840;37.442;2022-08-03T00:50:23;99743.69;;;20.19;59.37
56074;BME280;41950;55.840;37.442;2022-08-03T00:52:51;99733.13;;;20.19;59.27
56074;BME280;41950;55.840;37.442;2022-08-03T00:55:17;99742.06;;;20.17;59.05
56074;BME280;41950;55.840;37.442;2022-08-03T00:57:43;99739.44;;;20.17;59.16
56074;BME280;41950;55.840;37.442;2022-08-03T01:00:11;99738.31;;;20.21;59.04
56074;BME280;41950;55.840;37.442;2022-08-03T01:02:38;99735.00;;;20.17;59.07
56074;BME280;41950;55.840;37.442;2022-08-03T01:05:04;99733.47;;;20.13;59.18
56074;BME280;41950;55.840;37.442;2022-08-03T01:08:10;99724.13;;;20.08;59.00
56074;BME280;41950;55.840;37.442;2022-08-03T01:11:14;99731.28;;;20.05;59.11
56074;BME280;41950;55.840;37.442;2022-08-03T01:13:56;99724.63;;;19.98;58.90
56074;BME280;41950;55.840;37.442;2022-08-03T01:16:31;99731.59;;;19.99;59.22
56074;BME280;41950;55.840;37.442;2022-08-03T01:27:02;99725.81;;;19.93;59.06
56074;BME280;41950;55.840;37.442;2022-08-03T01:30:02;99729.41;;;19.92;59.55
56074;BME280;41950;55.840;37.442;2022-08-03T01:32:40;99726.00;;;19.90;59.65
56074;BME280;41950;55.840;37.442;2022-08-03T01:35:12;99735.50;;;19.92;59.86
56074;BME280;41950;55.840;37.442;2022-08-03T01:37:44;99727.34;;;19.97;59.47
56074;BME280;41950;55.840;37.442;2022-08-03T01:40:13;99727.25;;;19.98;59.49
56074;BME280;41950;55.840;37.442;2022-08-03T01:42:40;99732.91;;;20.08;59.67
56074;BME280;41950;55.840;37.442;2022-08-03T01:45:10;99736.22;;;20.12;59.61
56074;BME280;41950;55.840;37.442;2022-08-03T01:47:38;99734.69;;;20.08;59.56
56074;BME280;41950;55.840;37.442;2022-08-03T01:50:06;99735.69;;;20.05;59.54
56074;BME280;41950;55.840;37.442;2022-08-03T01:52:34;99730.06;;;19.95;59.95
56074;BME280;41950;55.840;37.442;2022-08-03T01:55:02;99740.59;;;19.95;60.44
56074;BME280;41950;55.840;37.442;2022-08-03T01:57:29;99733.03;;;19.89;60.48
56074;BME280;41950;55.840;37.442;2022-08-03T01:59:56;99742.38;;;19.95;60.17
56074;BME280;41950;55.840;37.442;2022-08-03T02:02:24;99738.06;;;19.94;60.36
56074;BME280;41950;55.840;37.442;2022-08-03T02:04:53;99734.16;;;19.85;60.46
56074;BME280;41950;55.840;37.442;2022-08-03T02:07:20;99741.13;;;19.86;60.55
56074;BME280;41950;55.840;37.442;2022-08-03T02:09:50;99738.81;;;19.80;60.77
56074;BME280;41950;55.840;37.442;2022-08-03T02:12:17;99745.63;;;19.84;60.74
56074;BME280;41950;55.840;37.442;2022-08-03T02:15:04;99738.56;;;19.85;60.91
56074;BME280;41950;55.840;37.442;2022-08-03T02:17:32;99735.59;;;19.75;60.83
56074;BME280;41950;55.840;37.442;2022-08-03T02:20:00;99750.13;;;19.82;60.95
56074;BME280;41950;55.840;37.442;2022-08-03T02:22:27;99754.88;;;19.91;60.60
56074;BME280;41950;55.840;37.442;2022-08-03T02:24:54;99749.44;;;19.94;60.71
56074;BME280;41950;55.840;37.442;2022-08-03T02:27:23;99753.19;;;19.90;60.79
56074;BME280;41950;55.840;37.442;2022-08-03T02:29:59;99750.63;;;19.89;60.88
56074;BME280;41950;55.840;37.442;2022-08-03T02:32:30;99753.19;;;19.90;61.25
56074;BME280;41950;55.840;37.442;2022-08-03T02:34:58;99746.22;;;19.89;61.24
56074;BME280;41950;55.840;37.442;2022-08-03T02:37:27;99751.91;;;19.97;61.17
56074;BME280;41950;55.840;37.442;2022-08-03T02:40:01;99757.94;;;19.99;61.23
56074;BME280;41950;55.840;37.442;2022-08-03T02:42:33;99757.81;;;20.02;60.92
56074;BME280;41950;55.840;37.442;2022-08-03T02:45:02;99761.03;;;20.08;60.69
56074;BME280;41950;55.840;37.442;2022-08-03T02:47:31;99758.47;;;20.06;60.53
56074;BME280;41950;55.840;37.442;2022-08-03T02:49:58;99752.34;;;20.05;61.19
56074;BME280;41950;55.840;37.442;2022-08-03T02:52:27;99750.66;;;20.04;60.83
56074;BME280;41950;55.840;37.442;2022-08-03T02:54:57;99758.06;;;20.14;61.14
56074;BME280;41950;55.840;37.442;2022-08-03T02:57:25;99762.22;;;20.18;60.48
56074;BME280;41950;55.840;37.442;2022-08-03T02:59:53;99756.41;;;20.27;60.22
56074;BME280;41950;55.840;37.442;2022-08-03T03:02:20;99761.53;;;20.30;60.54
56074;BME280;41950;55.840;37.442;2022-08-03T03:04:48;99752.78;;;20.29;60.34
56074;BME280;41950;55.840;37.442;2022-08-03T03:07:15;99771.41;;;20.42;60.73
56074;BME280;41950;55.840;37.442;2022-08-03T03:09:42;99768.78;;;20.42;61.00
56074;BME280;41950;55.840;37.442;2022-08-03T03:12:09;99763.59;;;20.41;60.82
56074;BME280;41950;55.840;37.442;2022-08-03T03:14:36;99769.53;;;20.44;60.83
56074;BME280;41950;55.840;37.442;2022-08-03T03:17:02;99763.16;;;20.48;60.51
56074;BME280;41950;55.840;37.442;2022-08-03T03:19:29;99766.06;;;20.59;60.42
56074;BME280;41950;55.840;37.442;2022-08-03T03:21:59;99765.59;;;20.67;60.20
56074;BME280;41950;55.840;37.442;2022-08-03T03:24:28;99763.63;;;20.71;59.77
56074;BME280;41950;55.840;37.442;2022-08-03T03:26:54;99761.84;;;20.71;59.52
56074;BME280;41950;55.840;37.442;2022-08-03T03:29:20;99767.63;;;20.78;59.76
56074;BME280;41950;55.840;37.442;2022-08-03T03:31:46;99763.94;;;20.80;59.68
56074;BME280;41950;55.840;37.442;2022-08-03T03:34:12;99774.06;;;20.88;59.39
56074;BME280;41950;55.840;37.442;2022-08-03T03:36:38;99769.47;;;20.91;59.62
56074;BME280;41950;55.840;37.442;2022-08-03T03:39:04;99771.25;;;20.91;59.70
56074;BME280;41950;55.840;37.442;2022-08-03T03:41:30;99776.94;;;20.99;59.43
56074;BME280;41950;55.840;37.442;2022-08-03T03:43:56;99779.28;;;21.04;59.15
56074;BME280;41950;55.840;37.442;2022-08-03T03:46:22;99775.81;;;21.03;58.52
56074;BME280;41950;55.840;37.442;2022-08-03T03:48:47;99780.91;;;21.06;58.21
56074;BME280;41950;55.840;37.442;2022-08-03T03:51:14;99768.06;;;21.00;57.79
56074;BME280;41950;55.840;37.442;2022-08-03T03:53:39;99781.19;;;21.02;58.17
56074;BME280;41950;55.840;37.442;2022-08-03T03:56:06;99766.56;;;20.96;57.84
56074;BME280;41950;55.840;37.442;2022-08-03T03:58:32;99776.66;;;21.04;58.27
56074;BME280;41950;55.840;37.442;2022-08-03T04:00:58;99778.63;;;21.00;57.93
56074;BME280;41950;55.840;37.442;2022-08-03T04:03:24;99792.31;;;21.07;58.06
56074;BME280;41950;55.840;37.442;2022-08-03T04:05:49;99789.50;;;21.10;58.18
56074;BME280;41950;55.840;37.442;2022-08-03T04:08:34;99783.19;;;21.12;57.76
56074;BME280;41950;55.840;37.442;2022-08-03T04:11:21;99790.00;;;21.16;58.04
56074;BME280;41950;55.840;37.442;2022-08-03T04:13:51;99791.88;;;21.14;58.09
56074;BME280;41950;55.840;37.442;2022-08-03T04:16:22;99799.44;;;21.20;57.93
56074;BME280;41950;55.840;37.442;2022-08-03T04:19:00;99797.47;;;21.24;57.41
56074;BME280;41950;55.840;37.442;2022-08-03T04:21:27;99803.44;;;21.27;57.56
56074;BME280;41950;55.840;37.442;2022-08-03T04:23:59;99796.44;;;21.26;57.69
56074;BME280;41950;55.840;37.442;2022-08-03T04:26:29;99793.81;;;21.26;57.18
56074;BME280;41950;55.840;37.442;2022-08-03T04:28:56;99781.38;;;21.28;57.05
56074;BME280;41950;55.840;37.442;2022-08-03T04:31:24;99788.91;;;21.35;57.10
56074;BME280;41950;55.840;37.442;2022-08-03T04:33:51;99783.16;;;21.28;56.68
56074;BME280;41950;55.840;37.442;2022-08-03T04:36:23;99776.38;;;21.24;56.64
56074;BME280;41950;55.840;37.442;2022-08-03T04:41:37;99782.13;;;21.31;57.27
56074;BME280;41950;55.840;37.442;2022-08-03T04:44:04;99796.41;;;21.42;56.75
56074;BME280;41950;55.840;37.442;2022-08-03T04:46:35;99799.41;;;21.50;56.71
56074;BME280;41950;55.840;37.442;2022-08-03T04:49:01;99800.72;;;21.57;56.70
56074;BME280;41950;55.840;37.442;2022-08-03T04:51:28;99793.75;;;21.56;56.78
56074;BME280;41950;55.840;37.442;2022-08-03T04:53:54;99781.78;;;21.51;56.77
56074;BME280;41950;55.840;37.442;2022-08-03T04:56:19;99800.09;;;21.68;56.65
56074;BME280;41950;55.840;37.442;2022-08-03T04:58:45;99784.44;;;21.65;56.58
56074;BME280;41950;55.840;37.442;2022-08-03T05:01:14;99804.81;;;21.77;56.30
56074;BME280;41950;55.840;37.442;2022-08-03T05:03:59;99791.41;;;21.80;56.00
56074;BME280;41950;55.840;37.442;2022-08-03T05:06:25;99803.78;;;21.94;56.27
56074;BME280;41950;55.840;37.442;2022-08-03T05:08:50;99804.44;;;21.98;56.22
56074;BME280;41950;55.840;37.442;2022-08-03T05:11:16;99797.25;;;22.00;56.67
56074;BME280;41950;55.840;37.442;2022-08-03T05:13:43;99809.19;;;22.07;56.03
56074;BME280;41950;55.840;37.442;2022-08-03T05:16:09;99782.25;;;22.00;55.96
56074;BME280;41950;55.840;37.442;2022-08-03T05:18:36;99805.69;;;22.20;55.43
56074;BME280;41950;55.840;37.442;2022-08-03T05:21:02;99800.94;;;22.26;54.99
56074;BME280;41950;55.840;37.442;2022-08-03T05:23:29;99800.34;;;22.35;55.69
56074;BME280;41950;55.840;37.442;2022-08-03T05:25:55;99787.97;;;22.35;54.61
56074;BME280;41950;55.840;37.442;2022-08-03T05:28:20;99794.56;;;22.42;54.44
56074;BME280;41950;55.840;37.442;2022-08-03T05:30:46;99807.22;;;22.51;54.46
56074;BME280;41950;55.840;37.442;2022-08-03T05:33:12;99804.91;;;22.60;54.29
56074;BME280;41950;55.840;37.442;2022-08-03T05:35:38;99794.88;;;22.65;54.06
56074;BME280;41950;55.840;37.442;2022-08-03T05:38:04;99793.41;;;22.73;54.07
56074;BME280;41950;55.840;37.442;2022-08-03T05:40:30;99802.41;;;22.85;53.58
56074;BME280;41950;55.840;37.442;2022-08-03T05:42:56;99796.59;;;22.93;53.50
56074;BME280;41950;55.840;37.442;2022-08-03T05:45:23;99794.38;;;22.99;53.49
56074;BME280;41950;55.840;37.442;2022-08-03T05:47:49;99794.84;;;23.06;52.92
56074;BME280;41950;55.840;37.442;2022-08-03T05:50:16;99805.66;;;23.16;52.94
56074;BME280;41950;55.840;37.442;2022-08-03T05:52:42;99808.63;;;23.24;52.36
56074;BME280;41950;55.840;37.442;2022-08-03T05:55:09;99806.00;;;23.36;52.14
56074;BME280;41950;55.840;37.442;2022-08-03T05:57:36;99806.22;;;23.46;51.97
56074;BME280;41950;55.840;37.442;2022-08-03T06:00:10;99806.63;;;23.53;51.59
56074;BME280;41950;55.840;37.442;2022-08-03T06:02:36;99800.97;;;23.59;51.34
56074;BME280;41950;55.840;37.442;2022-08-03T06:05:02;99801.38;;;23.65;51.14
56074;BME280;41950;55.840;37.442;2022-08-03T06:07:28;99812.06;;;23.77;50.40
56074;BME280;41950;55.840;37.442;2022-08-03T06:09:54;99803.81;;;23.81;50.66
56074;BME280;41950;55.840;37.442;2022-08-03T06:12:20;99810.91;;;23.93;50.67
56074;BME280;41950;55.840;37.442;2022-08-03T06:14:45;99815.44;;;24.04;49.98
56074;BME280;41950;55.840;37.442;2022-08-03T06:17:11;99805.78;;;24.03;49.58
56074;BME280;41950;55.840;37.442;2022-08-03T06:19:37;99808.66;;;24.13;49.71
56074;BME280;41950;55.840;37.442;2022-08-03T06:22:03;99802.06;;;24.18;49.38
56074;BME280;41950;55.840;37.442;2022-08-03T06:24:28;99800.78;;;24.24;49.76
56074;BME280;41950;55.840;37.442;2022-08-03T06:26:54;99807.97;;;24.34;49.46
56074;BME280;41950;55.840;37.442;2022-08-03T06:29:20;99803.72;;;24.45;49.44
56074;BME280;41950;55.840;37.442;2022-08-03T06:31:45;99807.63;;;24.52;47.91
56074;BME280;41950;55.840;37.442;2022-08-03T06:34:11;99814.38;;;24.56;48.31
56074;BME280;41950;55.840;37.442;2022-08-03T06:36:37;99811.50;;;24.59;47.60
56074;BME280;41950;55.840;37.442;2022-08-03T06:39:03;99808.50;;;24.63;47.50
56074;BME280;41950;55.840;37.442;2022-08-03T06:41:30;99810.63;;;24.71;47.72
56074;BME280;41950;55.840;37.442;2022-08-03T06:43:55;99804.84;;;24.77;46.95
56074;BME280;41950;55.840;37.442;2022-08-03T06:46:21;99811.41;;;24.84;46.92
56074;BME280;41950;55.840;37.442;2022-08-03T06:48:47;99803.69;;;24.92;46.57
56074;BME280;41950;55.840;37.442;2022-08-03T06:51:13;99813.69;;;25.02;46.01
56074;BME280;41950;55.840;37.442;2022-08-03T06:53:38;99807.78;;;25.09;45.60
56074;BME280;41950;55.840;37.442;2022-08-03T06:56:05;99807.56;;;25.12;45.35
56074;BME280;41950;55.840;37.442;2022-08-03T06:58:31;99806.03;;;25.21;45.47
56074;BME280;41950;55.840;37.442;2022-08-03T07:00:57;99816.44;;;25.35;44.93
56074;BME280;41950;55.840;37.442;2022-08-03T07:03:23;99803.16;;;25.35;44.09
56074;BME280;41950;55.840;37.442;2022-08-03T07:05:48;99816.25;;;25.49;43.93
56074;BME280;41950;55.840;37.442;2022-08-03T07:08:16;99804.66;;;25.50;44.55
56074;BME280;41950;55.840;37.442;2022-08-03T07:10:42;99809.00;;;25.63;43.61
56074;BME280;41950;55.840;37.442;2022-08-03T07:13:07;99814.84;;;25.68;43.32
56074;BME280;41950;55.840;37.442;2022-08-03T07:15:34;99808.44;;;25.70;42.27
56074;BME280;41950;55.840;37.442;2022-08-03T07:17:59;99811.50;;;25.77;42.88
56074;BME280;41950;55.840;37.442;2022-08-03T07:20:25;99818.50;;;25.78;42.72
56074;BME280;41950;55.840;37.442;2022-08-03T07:22:51;99825.38;;;25.80;42.84
56074;BME280;41950;55.840;37.442;2022-08-03T07:25:16;99828.41;;;25.76;41.50
56074;BME280;41950;55.840;37.442;2022-08-03T07:27:43;99829.34;;;25.75;42.27
56074;BME280;41950;55.840;37.442;2022-08-03T07:30:09;99820.91;;;25.81;41.39
56074;BME280;41950;55.840;37.442;2022-08-03T07:32:35;99826.72;;;25.86;41.92
56074;BME280;41950;55.840;37.442;2022-08-03T07:35:02;99824.53;;;25.91;42.50
56074;BME280;41950;55.840;37.442;2022-08-03T07:37:29;99825.38;;;25.92;41.32
56074;BME280;41950;55.840;37.442;2022-08-03T07:39:56;99810.63;;;25.87;40.96
56074;BME280;41950;55.840;37.442;2022-08-03T07:42:21;99824.03;;;25.97;41.39
56074;BME280;41950;55.840;37.442;2022-08-03T07:44:50;99818.16;;;26.05;41.50
56074;BME280;41950;55.840;37.442;2022-08-03T07:47:19;99820.19;;;26.12;41.63
56074;BME280;41950;55.840;37.442;2022-08-03T07:49:47;99826.81;;;26.29;41.66
56074;BME280;41950;55.840;37.442;2022-08-03T07:52:12;99829.25;;;26.32;39.54
56074;BME280;41950;55.840;37.442;2022-08-03T07:54:56;99822.88;;;26.35;39.53
56074;BME280;41950;55.840;37.442;2022-08-03T07:57:22;99829.38;;;26.42;38.85
56074;BME280;41950;55.840;37.442;2022-08-03T07:59:48;99829.72;;;26.48;38.99
56074;BME280;41950;55.840;37.442;2022-08-03T08:02:13;99822.81;;;26.57;38.60
56074;BME280;41950;55.840;37.442;2022-08-03T08:04:39;99827.91;;;26.60;38.50
56074;BME280;41950;55.840;37.442;2022-08-03T08:07:05;99830.31;;;26.63;38.18
56074;BME280;41950;55.840;37.442;2022-08-03T08:09:31;99829.09;;;26.67;37.60
56074;BME280;41950;55.840;37.442;2022-08-03T08:11:57;99808.75;;;26.66;36.86
56074;BME280;41950;55.840;37.442;2022-08-03T08:14:22;99820.91;;;26.80;37.68
56074;BME280;41950;55.840;37.442;2022-08-03T08:16:48;99813.16;;;26.88;36.99
56074;BME280;41950;55.840;37.442;2022-08-03T08:19:14;99828.50;;;26.96;36.97
56074;BME280;41950;55.840;37.442;2022-08-03T08:21:41;99828.38;;;26.97;36.89
56074;BME280;41950;55.840;37.442;2022-08-03T08:24:07;99811.69;;;26.95;37.12
56074;BME280;41950;55.840;37.442;2022-08-03T08:26:33;99815.41;;;27.04;37.07
56074;BME280;41950;55.840;37.442;2022-08-03T08:28:59;99824.13;;;27.06;37.47
56074;BME280;41950;55.840;37.442;2022-08-03T08:31:25;99821.81;;;27.13;37.12
56074;BME280;41950;55.840;37.442;2022-08-03T08:33:50;99816.34;;;27.14;38.69
56074;BME280;41950;55.840;37.442;2022-08-03T08:36:16;99815.06;;;27.29;37.60
56074;BME280;41950;55.840;37.442;2022-08-03T08:38:42;99818.09;;;27.25;36.49
56074;BME280;41950;55.840;37.442;2022-08-03T08:41:13;99817.41;;;27.23;36.61
56074;BME280;41950;55.840;37.442;2022-08-03T08:43:41;99821.81;;;27.33;36.59
56074;BME280;41950;55.840;37.442;2022-08-03T08:46:10;99824.44;;;27.45;36.35
56074;BME280;41950;55.840;37.442;2022-08-03T08:48:40;99814.34;;;27.48;36.41
56074;BME280;41950;55.840;37.442;2022-08-03T08:51:07;99816.22;;;27.57;36.06
56074;BME280;41950;55.840;37.442;2022-08-03T08:53:35;99806.03;;;27.62;35.49
56074;BME280;41950;55.840;37.442;2022-08-03T08:56:03;99815.34;;;27.68;35.31
56074;BME280;41950;55.840;37.442;2022-08-03T08:58:33;99812.84;;;27.76;35.12
56074;BME280;41950;55.840;37.442;2022-08-03T09:01:01;99806.13;;;27.82;34.79
56074;BME280;41950;55.840;37.442;2022-08-03T09:03:26;99812.69;;;27.98;35.37
56074;BME280;41950;55.840;37.442;2022-08-03T09:05:53;99811.16;;;28.06;35.42
56074;BME280;41950;55.840;37.442;2022-08-03T09:08:19;99822.13;;;28.12;35.16
56074;BME280;41950;55.840;37.442;2022-08-03T09:10:46;99815.66;;;28.05;34.97
56074;BME280;41950;55.840;37.442;2022-08-03T09:13:12;99815.66;;;28.05;34.71
56074;BME280;41950;55.840;37.442;2022-08-03T09:15:37;99815.25;;;28.10;34.42
56074;BME280;41950;55.840;37.442;2022-08-03T09:18:03;99821.13;;;28.04;34.88
56074;BME280;41950;55.840;37.442;2022-08-03T09:20:33;99822.00;;;27.83;34.85
56074;BME280;41950;55.840;37.442;2022-08-03T09:23:04;99821.38;;;27.70;35.19
56074;BME280;41950;55.840;37.442;2022-08-03T09:25:34;99815.97;;;27.81;35.28
56074;BME280;41950;55.840;37.442;2022-08-03T09:28:09;99815.84;;;27.92;35.27
56074;BME280;41950;55.840;37.442;2022-08-03T09:30:36;99816.09;;;28.10;34.99
56074;BME280;41950;55.840;37.442;2022-08-03T09:33:05;99815.66;;;28.15;34.96
56074;BME280;41950;55.840;37.442;2022-08-03T09:35:31;99816.06;;;28.00;35.08
56074;BME280;41950;55.840;37.442;2022-08-03T09:38:16;99823.47;;;27.97;35.22
56074;BME280;41950;55.840;37.442;2022-08-03T09:40:44;99806.97;;;27.82;34.72
56074;BME280;41950;55.840;37.442;2022-08-03T09:43:10;99824.22;;;27.78;35.26
56074;BME280;41950;55.840;37.442;2022-08-03T09:45:38;99825.03;;;27.69;35.55
56074;BME280;41950;55.840;37.442;2022-08-03T09:48:27;99824.31;;;27.67;35.19
56074;BME280;41950;55.840;37.442;2022-08-03T09:50:55;99822.53;;;27.77;35.59
56074;BME280;41950;55.840;37.442;2022-08-03T09:53:21;99824.22;;;27.78;35.24
56074;BME280;41950;55.840;37.442;2022-08-03T09:56:07;99808.94;;;27.59;35.40
56074;BME280;41950;55.840;37.442;2022-08-03T09:58:32;99821.53;;;27.68;35.89
56074;BME280;41950;55.840;37.442;2022-08-03T10:03:28;99816.31;;;27.67;34.69
56074;BME280;41950;55.840;37.442;2022-08-03T10:05:54;99817.03;;;27.69;34.29
56074;BME280;41950;55.840;37.442;2022-08-03T10:08:20;99814.38;;;27.69;36.30
56074;BME280;41950;55.840;37.442;2022-08-03T10:10:47;99822.38;;;27.99;35.10
56074;BME280;41950;55.840;37.442;2022-08-03T10:13:17;99821.09;;;28.34;34.58
56074;BME280;41950;55.840;37.442;2022-08-03T10:15:45;99821.16;;;28.53;34.77
56074;BME280;41950;55.840;37.442;2022-08-03T10:18:11;99810.31;;;28.45;33.88
56074;BME280;41950;55.840;37.442;2022-08-03T10:21:03;99830.97;;;28.43;34.66
56074;BME280;41950;55.840;37.442;2022-08-03T10:23:37;99816.78;;;28.43;34.62
56074;BME280;41950;55.840;37.442;2022-08-03T10:26:04;99823.56;;;28.56;34.20
56074;BME280;41950;55.840;37.442;2022-08-03T10:28:38;99818.78;;;28.60;33.97
56074;BME280;41950;55.840;37.442;2022-08-03T10:31:05;99831.38;;;28.48;34.29
56074;BME280;41950;55.840;37.442;2022-08-03T10:33:35;99822.81;;;28.35;34.16
56074;BME280;41950;55.840;37.442;2022-08-03T10:36:03;99827.72;;;28.30;34.09
56074;BME280;41950;55.840;37.442;2022-08-03T10:38:40;99822.41;;;28.19;34.94
56074;BME280;41950;55.840;37.442;2022-08-03T10:41:08;99828.31;;;28.13;36.06
56074;BME280;41950;55.840;37.442;2022-08-03T10:43:46;99833.22;;;28.08;36.11
56074;BME280;41950;55.840;37.442;2022-08-03T10:46:18;99824.34;;;28.07;36.66
56074;BME280;41950;55.840;37.442;2022-08-03T10:48:47;99823.81;;;28.13;35.50
56074;BME280;41950;55.840;37.442;2022-08-03T10:51:14;99823.53;;;28.16;36.51
56074;BME280;41950;55.840;37.442;2022-08-03T10:53:41;99835.84;;;28.28;37.51
56074;BME280;41950;55.840;37.442;2022-08-03T10:59:19;99834.03;;;28.39;36.70
56074;BME280;41950;55.840;37.442;2022-08-03T11:01:53;99836.72;;;28.48;36.88
56074;BME280;41950;55.840;37.442;2022-08-03T11:04:20;99829.03;;;28.65;36.05
56074;BME280;41950;55.840;37.442;2022-08-03T11:06:46;99832.31;;;28.78;36.10
56074;BME280;41950;55.840;37.442;2022-08-03T11:11:40;99831.00;;;28.72;35.79
56074;BME280;41950;55.840;37.442;2022-08-03T11:14:18;99816.25;;;28.58;34.57
56074;BME280;41950;55.840;37.442;2022-08-03T11:16:48;99838.53;;;28.88;36.15
56074;BME280;41950;55.840;37.442;2022-08-03T11:19:16;99830.38;;;29.47;34.35
56074;BME280;41950;55.840;37.442;2022-08-03T11:27:20;99818.41;;;31.34;31.54
56074;BME280;41950;55.840;37.442;2022-08-03T11:40:50;99814.91;;;30.53;30.71
56074;BME280;41950;55.840;37.442;2022-08-03T11:46:14;99831.63;;;30.37;31.42
56074;BME280;41950;55.840;37.442;2022-08-03T11:48:48;99826.19;;;30.29;32.45
56074;BME280;41950;55.840;37.442;2022-08-03T11:51:26;99834.97;;;30.21;32.33
56074;BME280;41950;55.840;37.442;2022-08-03T11:53:56;99822.03;;;30.17;32.76
56074;BME280;41950;55.840;37.442;2022-08-03T11:56:23;99835.44;;;30.07;32.29
56074;BME280;41950;55.840;37.442;2022-08-03T11:58:51;99823.59;;;30.09;32.74
56074;BME280;41950;55.840;37.442;2022-08-03T12:01:19;99824.94;;;30.51;33.17
56074;BME280;41950;55.840;37.442;2022-08-03T12:03:45;99823.00;;;30.88;31.30
56074;BME280;41950;55.840;37.442;2022-08-03T12:06:13;99820.22;;;31.51;30.63
56074;BME280;41950;55.840;37.442;2022-08-03T12:08:40;99818.84;;;31.99;29.08
56074;BME280;41950;55.840;37.442;2022-08-03T12:11:08;99804.59;;;32.33;26.93
56074;BME280;41950;55.840;37.442;2022-08-03T12:13:44;99817.97;;;32.83;27.64
56074;BME280;41950;55.840;37.442;2022-08-03T12:16:20;99804.06;;;33.28;27.15
56074;BME280;41950;55.840;37.442;2022-08-03T12:21:21;99814.41;;;33.96;26.43
56074;BME280;41950;55.840;37.442;2022-08-03T12:23:49;99808.16;;;34.43;25.50
56074;BME280;41950;55.840;37.442;2022-08-03T12:26:15;99802.69;;;34.59;24.75
56074;BME280;41950;55.840;37.442;2022-08-03T12:28:48;99800.75;;;34.45;24.95
56074;BME280;41950;55.840;37.442;2022-08-03T12:31:13;99808.81;;;34.53;24.47
56074;BME280;41950;55.840;37.442;2022-08-03T12:33:56;99806.41;;;34.58;23.86
56074;BME280;41950;55.840;37.442;2022-08-03T12:36:22;99800.47;;;34.63;24.61
56074;BME280;41950;55.840;37.442;2022-08-03T12:38:54;99806.59;;;34.57;25.83
56074;BME280;41950;55.840;37.442;2022-08-03T12:41:27;99812.84;;;34.49;25.27
56074;BME280;41950;55.840;37.442;2022-08-03T12:43:53;99797.25;;;34.36;25.66
56074;BME280;41950;55.840;37.442;2022-08-03T12:46:19;99806.19;;;34.29;25.93
56074;BME280;41950;55.840;37.442;2022-08-03T12:49:08;99813.41;;;33.97;25.18
56074;BME280;41950;55.840;37.442;2022-08-03T12:51:56;99817.47;;;33.69;25.88
56074;BME280;41950;55.840;37.442;2022-08-03T12:54:27;99803.56;;;33.41;26.19
56074;BME280;41950;55.840;37.442;2022-08-03T12:57:03;99811.47;;;33.26;27.02
56074;BME280;41950;55.840;37.442;2022-08-03T12:59:33;99811.44;;;33.10;27.73
56074;BME280;41950;55.840;37.442;2022-08-03T13:01:59;99809.59;;;32.86;27.74
56074;BME280;41950;55.840;37.442;2022-08-03T13:04:30;99810.72;;;32.75;28.63
56074;BME280;41950;55.840;37.442;2022-08-03T13:07:04;99808.38;;;32.64;27.13
56074;BME280;41950;55.840;37.442;2022-08-03T13:09:46;99813.88;;;32.54;27.91
56074;BME280;41950;55.840;37.442;2022-08-03T13:12:15;99814.34;;;32.34;27.54
56074;BME280;41950;55.840;37.442;2022-08-03T13:14:42;99804.38;;;32.26;28.75
56074;BME280;41950;55.840;37.442;2022-08-03T13:17:08;99814.63;;;32.31;27.89
56074;BME280;41950;55.840;37.442;2022-08-03T13:19:35;99820.50;;;32.26;28.10
56074;BME280;41950;55.840;37.442;2022-08-03T13:22:13;99813.13;;;32.28;28.43
56074;BME280;41950;55.840;37.442;2022-08-03T13:24:40;99811.94;;;32.31;28.29
56074;BME280;41950;55.840;37.442;2022-08-03T13:27:07;99812.28;;;32.27;28.34
56074;BME280;41950;55.840;37.442;2022-08-03T13:29:33;99806.34;;;32.24;27.84
56074;BME280;41950;55.840;37.442;2022-08-03T13:32:00;99806.22;;;32.25;27.98
56074;BME280;41950;55.840;37.442;2022-08-03T13:34:26;99813.13;;;32.28;28.76
56074;BME280;41950;55.840;37.442;2022-08-03T13:36:52;99815.13;;;32.26;27.34
56074;BME280;41950;55.840;37.442;2022-08-03T13:39:17;99812.44;;;32.26;27.77